Terminal Aerodrome Forecast
Issued by NWS

Home | Current Version | Previous Version | Text Only | Print | Product List | Glossary On
Versions: 1 2 3 4 5 6 7 8 9 10 11 12 13 14 15 16 17 18 19 20 21 22 23 24 25 26 27 28 29 30 31 32 33 34 35 36
000
FTUS41 KCAR 182320
TAFPQI
TAF
KPQI 182320Z 1900/1924 15013G22KT 6SM -RA SCT010 OVC050
     FM190400 18015G24KT 2SM -RA BR OVC010
     FM191800 23006KT 5SM -RA BR OVC015
     FM192100 35004KT 3SM -RA BR OVC001
     FM192300 02005KT 2SM -RA BR OVC010=

USA.gov is the U.S. government's official web portal to all federal, state and local government web resources and services.